sensor_id;sensor_type;location;lat;lon;timestamp;temperature;humidity
56123;DHT22;42426;46.104;19.656;2022-10-22T00:00:52;333.10;2176.00
56123;DHT22;42426;46.104;19.656;2022-10-22T00:03:17;333.10;2176.00
56123;DHT22;42426;46.104;19.656;2022-10-22T00:05:43;333.10;2176.00
56123;DHT22;42426;46.104;19.656;2022-10-22T00:08:15;333.10;2176.00
56123;DHT22;42426;46.104;19.656;2022-10-22T00:10:41;333.10;2176.00
56123;DHT22;42426;46.104;19.656;2022-10-22T00:13:10;333.10;2176.00
56123;DHT22;42426;46.104;19.656;2022-10-22T00:15:36;333.10;2176.00
56123;DHT22;42426;46.104;19.656;2022-10-22T00:18:02;333.00;2201.60
56123;DHT22;42426;46.104;19.656;2022-10-22T00:20:30;333.00;2201.60
56123;DHT22;42426;46.104;19.656;2022-10-22T00:22:56;333.00;2201.60
56123;DHT22;42426;46.104;19.656;2022-10-22T00:25:22;333.10;2201.60
56123;DHT22;42426;46.104;19.656;2022-10-22T00:27:47;333.10;2201.60
56123;DHT22;42426;46.104;19.656;2022-10-22T00:30:13;333.10;2201.60
56123;DHT22;42426;46.104;19.656;2022-10-22T00:32:39;333.10;2201.60
56123;DHT22;42426;46.104;19.656;2022-10-22T00:35:06;333.00;2201.60
56123;DHT22;42426;46.104;19.656;2022-10-22T00:37:31;333.10;2201.60
56123;DHT22;42426;46.104;19.656;2022-10-22T00:39:59;333.00;2201.60
56123;DHT22;42426;46.104;19.656;2022-10-22T00:42:26;333.00;2201.60
56123;DHT22;42426;46.104;19.656;2022-10-22T00:45:13;333.00;2201.60
56123;DHT22;42426;46.104;19.656;2022-10-22T00:48:08;333.00;2201.60
56123;DHT22;42426;46.104;19.656;2022-10-22T00:50:39;333.00;2201.60
56123;DHT22;42426;46.104;19.656;2022-10-22T00:53:12;333.00;2201.60
56123;DHT22;42426;46.104;19.656;2022-10-22T00:55:39;333.00;2227.20
56123;DHT22;42426;46.104;19.656;2022-10-22T00:58:06;332.90;2227.20
56123;DHT22;42426;46.104;19.656;2022-10-22T01:00:33;333.00;2227.20
56123;DHT22;42426;46.104;19.656;2022-10-22T01:02:59;333.00;2227.20
56123;DHT22;42426;46.104;19.656;2022-10-22T01:05:27;333.00;2227.20
56123;DHT22;42426;46.104;19.656;2022-10-22T01:07:55;333.00;2227.20
56123;DHT22;42426;46.104;19.656;2022-10-22T01:10:26;333.00;2227.20
56123;DHT22;42426;46.104;19.656;2022-10-22T01:15:54;333.00;2227.20
56123;DHT22;42426;46.104;19.656;2022-10-22T01:21:34;333.00;2227.20
56123;DHT22;42426;46.104;19.656;2022-10-22T01:26:47;332.90;2227.20
56123;DHT22;42426;46.104;19.656;2022-10-22T01:29:26;332.90;2227.20
56123;DHT22;42426;46.104;19.656;2022-10-22T01:32:11;332.90;2252.80
56123;DHT22;42426;46.104;19.656;2022-10-22T01:34:40;332.90;2252.80
56123;DHT22;42426;46.104;19.656;2022-10-22T01:37:09;332.90;2252.80
56123;DHT22;42426;46.104;19.656;2022-10-22T01:39:37;332.90;2227.20
56123;DHT22;42426;46.104;19.656;2022-10-22T01:42:04;332.90;2227.20
56123;DHT22;42426;46.104;19.656;2022-10-22T01:44:32;333.00;2227.20
56123;DHT22;42426;46.104;19.656;2022-10-22T01:53:00;333.00;2227.20
56123;DHT22;42426;46.104;19.656;2022-10-22T01:58:40;333.10;2252.80
56123;DHT22;42426;46.104;19.656;2022-10-22T02:01:36;333.10;2227.20
56123;DHT22;42426;46.104;19.656;2022-10-22T02:04:21;333.20;2252.80
56123;DHT22;42426;46.104;19.656;2022-10-22T02:06:49;333.20;2227.20
56123;DHT22;42426;46.104;19.656;2022-10-22T02:09:18;333.10;2252.80
56123;DHT22;42426;46.104;19.656;2022-10-22T02:11:45;333.20;2252.80
56123;DHT22;42426;46.104;19.656;2022-10-22T02:14:12;333.20;2227.20
56123;DHT22;42426;46.104;19.656;2022-10-22T02:16:47;333.20;2227.20
56123;DHT22;42426;46.104;19.656;2022-10-22T02:21:42;333.30;2227.20
56123;DHT22;42426;46.104;19.656;2022-10-22T02:24:09;333.30;2227.20
56123;DHT22;42426;46.104;19.656;2022-10-22T02:27:21;333.30;2252.80
56123;DHT22;42426;46.104;19.656;2022-10-22T02:29:53;333.40;2227.20
56123;DHT22;42426;46.104;19.656;2022-10-22T02:32:23;333.40;2227.20
56123;DHT22;42426;46.104;19.656;2022-10-22T02:34:52;333.40;2201.60
56123;DHT22;42426;46.104;19.656;2022-10-22T02:37:19;333.40;2227.20
56123;DHT22;42426;46.104;19.656;2022-10-22T02:39:46;333.40;2227.20
56123;DHT22;42426;46.104;19.656;2022-10-22T02:42:13;333.40;2227.20
56123;DHT22;42426;46.104;19.656;2022-10-22T02:44:40;333.40;2227.20
56123;DHT22;42426;46.104;19.656;2022-10-22T02:47:05;333.40;2227.20
56123;DHT22;42426;46.104;19.656;2022-10-22T02:49:31;333.30;2227.20
56123;DHT22;42426;46.104;19.656;2022-10-22T02:51:57;333.40;2227.20
56123;DHT22;42426;46.104;19.656;2022-10-22T02:54:24;333.30;2227.20
56123;DHT22;42426;46.104;19.656;2022-10-22T02:56:50;333.30;2227.20
56123;DHT22;42426;46.104;19.656;2022-10-22T02:59:15;333.30;2227.20
56123;DHT22;42426;46.104;19.656;2022-10-22T03:01:41;333.40;2227.20
56123;DHT22;42426;46.104;19.656;2022-10-22T03:04:07;333.40;2227.20
56123;DHT22;42426;46.104;19.656;2022-10-22T03:06:33;333.40;2252.80
56123;DHT22;42426;46.104;19.656;2022-10-22T03:08:58;333.40;2252.80
56123;DHT22;42426;46.104;19.656;2022-10-22T03:11:24;333.40;2252.80
56123;DHT22;42426;46.104;19.656;2022-10-22T03:13:50;333.40;2227.20
56123;DHT22;42426;46.104;19.656;2022-10-22T03:16:16;333.40;2227.20
56123;DHT22;42426;46.104;19.656;2022-10-22T03:18:42;333.40;2252.80
56123;DHT22;42426;46.104;19.656;2022-10-22T03:21:24;333.40;2227.20
56123;DHT22;42426;46.104;19.656;2022-10-22T03:23:50;333.40;2252.80
56123;DHT22;42426;46.104;19.656;2022-10-22T03:26:17;333.40;2227.20
56123;DHT22;42426;46.104;19.656;2022-10-22T03:28:43;333.40;2252.80
56123;DHT22;42426;46.104;19.656;2022-10-22T03:31:11;333.50;2252.80
56123;DHT22;42426;46.104;19.656;2022-10-22T03:33:36;333.50;2252.80
56123;DHT22;42426;46.104;19.656;2022-10-22T03:36:07;333.50;2252.80
56123;DHT22;42426;46.104;19.656;2022-10-22T03:38:37;333.50;2252.80
56123;DHT22;42426;46.104;19.656;2022-10-22T03:41:03;333.50;2252.80
56123;DHT22;42426;46.104;19.656;2022-10-22T03:43:32;333.50;2252.80
56123;DHT22;42426;46.104;19.656;2022-10-22T03:45:58;333.50;2252.80
56123;DHT22;42426;46.104;19.656;2022-10-22T03:48:24;333.40;2252.80
56123;DHT22;42426;46.104;19.656;2022-10-22T03:50:50;333.40;2252.80
56123;DHT22;42426;46.104;19.656;2022-10-22T03:53:15;333.40;2252.80
56123;DHT22;42426;46.104;19.656;2022-10-22T03:55:42;333.40;2252.80
56123;DHT22;42426;46.104;19.656;2022-10-22T03:58:09;333.40;2252.80
56123;DHT22;42426;46.104;19.656;2022-10-22T04:00:34;333.40;2252.80
56123;DHT22;42426;46.104;19.656;2022-10-22T04:03:00;333.40;2252.80
56123;DHT22;42426;46.104;19.656;2022-10-22T04:05:26;333.40;2252.80
56123;DHT22;42426;46.104;19.656;2022-10-22T04:07:52;333.40;2252.80
56123;DHT22;42426;46.104;19.656;2022-10-22T04:10:18;333.40;2278.40
56123;DHT22;42426;46.104;19.656;2022-10-22T04:12:46;333.40;2278.40
56123;DHT22;42426;46.104;19.656;2022-10-22T04:15:13;333.40;2278.40
56123;DHT22;42426;46.104;19.656;2022-10-22T04:17:39;333.40;2252.80
56123;DHT22;42426;46.104;19.656;2022-10-22T04:20:06;333.40;2278.40
56123;DHT22;42426;46.104;19.656;2022-10-22T04:22:35;333.30;2278.40
56123;DHT22;42426;46.104;19.656;2022-10-22T04:25:01;333.30;2278.40
56123;DHT22;42426;46.104;19.656;2022-10-22T04:27:31;333.30;2278.40
56123;DHT22;42426;46.104;19.656;2022-10-22T04:29:57;333.30;2278.40
56123;DHT22;42426;46.104;19.656;2022-10-22T04:32:24;333.30;2252.80
56123;DHT22;42426;46.104;19.656;2022-10-22T04:34:50;333.30;2278.40
56123;DHT22;42426;46.104;19.656;2022-10-22T04:37:16;333.30;2278.40
56123;DHT22;42426;46.104;19.656;2022-10-22T04:39:41;333.20;2278.40
56123;DHT22;42426;46.104;19.656;2022-10-22T04:42:08;333.20;2278.40
56123;DHT22;42426;46.104;19.656;2022-10-22T04:44:34;333.20;2278.40
56123;DHT22;42426;46.104;19.656;2022-10-22T04:47:00;333.20;2278.40
56123;DHT22;42426;46.104;19.656;2022-10-22T04:49:25;333.20;2278.40
56123;DHT22;42426;46.104;19.656;2022-10-22T04:51:51;333.20;2278.40
56123;DHT22;42426;46.104;19.656;2022-10-22T04:54:17;333.20;2278.40
56123;DHT22;42426;46.104;19.656;2022-10-22T04:56:43;333.20;2278.40
56123;DHT22;42426;46.104;19.656;2022-10-22T04:59:13;333.10;2278.40
56123;DHT22;42426;46.104;19.656;2022-10-22T05:01:41;333.10;2278.40
56123;DHT22;42426;46.104;19.656;2022-10-22T05:04:10;333.10;2278.40
56123;DHT22;42426;46.104;19.656;2022-10-22T05:06:37;333.10;2304.00
56123;DHT22;42426;46.104;19.656;2022-10-22T05:09:10;333.10;2278.40
56123;DHT22;42426;46.104;19.656;2022-10-22T05:11:38;333.10;2304.00
56123;DHT22;42426;46.104;19.656;2022-10-22T05:14:06;333.00;2304.00
56123;DHT22;42426;46.104;19.656;2022-10-22T05:16:33;333.00;2304.00
56123;DHT22;42426;46.104;19.656;2022-10-22T05:19:00;333.00;2304.00
56123;DHT22;42426;46.104;19.656;2022-10-22T05:21:26;333.00;2304.00
56123;DHT22;42426;46.104;19.656;2022-10-22T05:23:54;333.00;2304.00
56123;DHT22;42426;46.104;19.656;2022-10-22T05:26:21;332.90;2304.00
56123;DHT22;42426;46.104;19.656;2022-10-22T05:28:49;332.90;2304.00
56123;DHT22;42426;46.104;19.656;2022-10-22T05:31:16;333.00;2304.00
56123;DHT22;42426;46.104;19.656;2022-10-22T05:33:43;333.00;2304.00
56123;DHT22;42426;46.104;19.656;2022-10-22T05:36:15;332.90;2304.00
56123;DHT22;42426;46.104;19.656;2022-10-22T05:38:41;332.90;2329.60
56123;DHT22;42426;46.104;19.656;2022-10-22T05:41:10;332.90;2329.60
56123;DHT22;42426;46.104;19.656;2022-10-22T05:43:36;332.90;2329.60
56123;DHT22;42426;46.104;19.656;2022-10-22T05:46:04;332.80;2329.60
56123;DHT22;42426;46.104;19.656;2022-10-22T05:48:33;332.80;2329.60
56123;DHT22;42426;46.104;19.656;2022-10-22T05:51:03;332.90;2329.60
56123;DHT22;42426;46.104;19.656;2022-10-22T05:53:33;332.90;2329.60
56123;DHT22;42426;46.104;19.656;2022-10-22T05:56:00;333.00;2329.60
56123;DHT22;42426;46.104;19.656;2022-10-22T05:58:26;333.00;2329.60
56123;DHT22;42426;46.104;19.656;2022-10-22T06:01:10;333.00;2329.60
56123;DHT22;42426;46.104;19.656;2022-10-22T06:03:36;333.10;2329.60
56123;DHT22;42426;46.104;19.656;2022-10-22T06:06:06;333.10;2304.00
56123;DHT22;42426;46.104;19.656;2022-10-22T06:08:36;333.20;2304.00
56123;DHT22;42426;46.104;19.656;2022-10-22T06:11:02;333.30;2304.00
56123;DHT22;42426;46.104;19.656;2022-10-22T06:13:30;333.30;2329.60
56123;DHT22;42426;46.104;19.656;2022-10-22T06:15:57;333.40;2304.00
56123;DHT22;42426;46.104;19.656;2022-10-22T06:18:23;333.50;2304.00
56123;DHT22;42426;46.104;19.656;2022-10-22T06:20:48;333.40;2304.00
56123;DHT22;42426;46.104;19.656;2022-10-22T06:23:15;333.60;2304.00
56123;DHT22;42426;46.104;19.656;2022-10-22T06:25:41;333.60;2304.00
56123;DHT22;42426;46.104;19.656;2022-10-22T06:28:08;333.60;2304.00
56123;DHT22;42426;46.104;19.656;2022-10-22T06:30:36;333.70;2278.40
56123;DHT22;42426;46.104;19.656;2022-10-22T06:33:02;333.70;2278.40
56123;DHT22;42426;46.104;19.656;2022-10-22T06:35:28;358.40;2304.00
56123;DHT22;42426;46.104;19.656;2022-10-22T06:37:54;358.40;2278.40
56123;DHT22;42426;46.104;19.656;2022-10-22T06:40:19;358.50;2278.40
56123;DHT22;42426;46.104;19.656;2022-10-22T06:42:45;358.60;2278.40
56123;DHT22;42426;46.104;19.656;2022-10-22T06:45:11;358.60;2252.80
56123;DHT22;42426;46.104;19.656;2022-10-22T06:47:37;358.60;2252.80
56123;DHT22;42426;46.104;19.656;2022-10-22T06:50:03;358.60;2278.40
56123;DHT22;42426;46.104;19.656;2022-10-22T06:52:28;358.70;2252.80
56123;DHT22;42426;46.104;19.656;2022-10-22T06:54:54;358.70;2278.40
56123;DHT22;42426;46.104;19.656;2022-10-22T06:57:20;358.70;2252.80
56123;DHT22;42426;46.104;19.656;2022-10-22T06:59:46;358.70;2252.80
56123;DHT22;42426;46.104;19.656;2022-10-22T07:02:12;358.70;2252.80
56123;DHT22;42426;46.104;19.656;2022-10-22T07:04:37;358.80;2252.80
56123;DHT22;42426;46.104;19.656;2022-10-22T07:07:03;358.80;2252.80
56123;DHT22;42426;46.104;19.656;2022-10-22T07:09:29;358.90;2252.80
56123;DHT22;42426;46.104;19.656;2022-10-22T07:11:54;358.90;2252.80
56123;DHT22;42426;46.104;19.656;2022-10-22T07:14:20;359.00;2252.80
56123;DHT22;42426;46.104;19.656;2022-10-22T07:16:46;359.10;2227.20
56123;DHT22;42426;46.104;19.656;2022-10-22T07:19:12;359.20;2227.20
56123;DHT22;42426;46.104;19.656;2022-10-22T07:21:39;359.30;2227.20
56123;DHT22;42426;46.104;19.656;2022-10-22T07:24:06;384.00;2227.20
56123;DHT22;42426;46.104;19.656;2022-10-22T07:26:32;384.10;2227.20
56123;DHT22;42426;46.104;19.656;2022-10-22T07:29:00;384.20;2201.60
56123;DHT22;42426;46.104;19.656;2022-10-22T07:31:26;384.30;2201.60
56123;DHT22;42426;46.104;19.656;2022-10-22T07:33:52;384.40;2176.00
56123;DHT22;42426;46.104;19.656;2022-10-22T07:36:18;384.40;2176.00
56123;DHT22;42426;46.104;19.656;2022-10-22T07:38:54;384.50;2176.00
56123;DHT22;42426;46.104;19.656;2022-10-22T07:41:20;384.50;2176.00
56123;DHT22;42426;46.104;19.656;2022-10-22T07:43:46;384.70;2176.00
56123;DHT22;42426;46.104;19.656;2022-10-22T07:46:12;384.80;2150.40
56123;DHT22;42426;46.104;19.656;2022-10-22T07:48:38;384.80;2150.40
56123;DHT22;42426;46.104;19.656;2022-10-22T07:51:04;384.90;2176.00
56123;DHT22;42426;46.104;19.656;2022-10-22T07:53:32;409.60;2176.00
56123;DHT22;42426;46.104;19.656;2022-10-22T07:55:58;409.70;2150.40
56123;DHT22;42426;46.104;19.656;2022-10-22T07:58:24;409.80;2124.80
56123;DHT22;42426;46.104;19.656;2022-10-22T08:00:54;409.90;2124.80
56123;DHT22;42426;46.104;19.656;2022-10-22T08:03:21;410.00;2099.20
56123;DHT22;42426;46.104;19.656;2022-10-22T08:05:46;410.00;2073.60
56123;DHT22;42426;46.104;19.656;2022-10-22T08:08:14;410.10;2073.60
56123;DHT22;42426;46.104;19.656;2022-10-22T08:10:41;410.20;2099.20
56123;DHT22;42426;46.104;19.656;2022-10-22T08:13:08;410.20;2073.60
56123;DHT22;42426;46.104;19.656;2022-10-22T08:15:34;410.30;2073.60
56123;DHT22;42426;46.104;19.656;2022-10-22T08:18:00;410.40;2073.60
56123;DHT22;42426;46.104;19.656;2022-10-22T08:20:31;410.40;2073.60
56123;DHT22;42426;46.104;19.656;2022-10-22T08:23:03;410.40;2073.60
56123;DHT22;42426;46.104;19.656;2022-10-22T08:25:28;435.20;2073.60
56123;DHT22;42426;46.104;19.656;2022-10-22T08:27:54;410.50;2048.00
56123;DHT22;42426;46.104;19.656;2022-10-22T08:30:20;435.20;2048.00
56123;DHT22;42426;46.104;19.656;2022-10-22T08:32:46;435.30;2022.40
56123;DHT22;42426;46.104;19.656;2022-10-22T08:35:13;435.20;2022.40
56123;DHT22;42426;46.104;19.656;2022-10-22T08:37:39;435.30;2048.00
56123;DHT22;42426;46.104;19.656;2022-10-22T08:40:51;435.40;2355.20
56123;DHT22;42426;46.104;19.656;2022-10-22T08:49:13;435.30;2048.00
56123;DHT22;42426;46.104;19.656;2022-10-22T08:51:41;435.30;2048.00
56123;DHT22;42426;46.104;19.656;2022-10-22T09:05:41;435.80;1920.00
56123;DHT22;42426;46.104;19.656;2022-10-22T09:08:11;436.00;1894.40
56123;DHT22;42426;46.104;19.656;2022-10-22T09:10:45;436.10;1894.40
56123;DHT22;42426;46.104;19.656;2022-10-22T09:13:17;436.00;1894.40
56123;DHT22;42426;46.104;19.656;2022-10-22T09:18:32;461.00;1894.40
56123;DHT22;42426;46.104;19.656;2022-10-22T09:21:15;461.00;1868.80
56123;DHT22;42426;46.104;19.656;2022-10-22T09:24:11;461.00;1868.80
56123;DHT22;42426;46.104;19.656;2022-10-22T09:26:40;461.10;1868.80
56123;DHT22;42426;46.104;19.656;2022-10-22T09:29:08;461.10;1843.20
56123;DHT22;42426;46.104;19.656;2022-10-22T09:31:38;461.10;1843.20
56123;DHT22;42426;46.104;19.656;2022-10-22T09:34:06;461.20;1817.60
56123;DHT22;42426;46.104;19.656;2022-10-22T09:36:33;461.20;1817.60
56123;DHT22;42426;46.104;19.656;2022-10-22T09:39:00;461.20;1792.00
56123;DHT22;42426;46.104;19.656;2022-10-22T09:41:28;461.30;1740.80
56123;DHT22;42426;46.104;19.656;2022-10-22T09:43:56;461.60;1715.20
56123;DHT22;42426;46.104;19.656;2022-10-22T09:46:26;461.40;1740.80
56123;DHT22;42426;46.104;19.656;2022-10-22T09:49:08;461.60;1740.80
56123;DHT22;42426;46.104;19.656;2022-10-22T09:51:57;461.60;1740.80
56123;DHT22;42426;46.104;19.656;2022-10-22T09:54:26;486.40;1715.20
56123;DHT22;42426;46.104;19.656;2022-10-22T09:57:15;486.50;1664.00
56123;DHT22;42426;46.104;19.656;2022-10-22T09:59:43;486.50;1587.20
56123;DHT22;42426;46.104;19.656;2022-10-22T10:02:19;486.70;1561.60
56123;DHT22;42426;46.104;19.656;2022-10-22T10:04:48;486.70;1561.60
56123;DHT22;42426;46.104;19.656;2022-10-22T10:07:33;486.70;1561.60
56123;DHT22;42426;46.104;19.656;2022-10-22T10:10:00;486.80;1587.20
56123;DHT22;42426;46.104;19.656;2022-10-22T10:12:39;486.90;1612.80
56123;DHT22;42426;46.104;19.656;2022-10-22T10:15:29;487.00;1612.80
56123;DHT22;42426;46.104;19.656;2022-10-22T10:21:08;487.20;1612.80
56123;DHT22;42426;46.104;19.656;2022-10-22T10:24:00;487.30;1561.60
56123;DHT22;42426;46.104;19.656;2022-10-22T10:26:32;512.00;1561.60
56123;DHT22;42426;46.104;19.656;2022-10-22T10:32:07;512.20;1484.80
56123;DHT22;42426;46.104;19.656;2022-10-22T10:37:27;512.20;1408.00
56123;DHT22;42426;46.104;19.656;2022-10-22T10:48:18;512.40;1382.40
56123;DHT22;42426;46.104;19.656;2022-10-22T10:51:14;512.50;1382.40
56123;DHT22;42426;46.104;19.656;2022-10-22T10:59:44;512.50;1382.40
56123;DHT22;42426;46.104;19.656;2022-10-22T11:07:38;512.80;1382.40
56123;DHT22;42426;46.104;19.656;2022-10-22T11:13:20;512.80;1382.40
56123;DHT22;42426;46.104;19.656;2022-10-22T11:15:47;512.90;1382.40
56123;DHT22;42426;46.104;19.656;2022-10-22T11:18:47;512.90;1382.40
56123;DHT22;42426;46.104;19.656;2022-10-22T11:27:35;512.80;1382.40
56123;DHT22;42426;46.104;19.656;2022-10-22T11:29:40;512.90;1356.80
56123;DHT22;42426;46.104;19.656;2022-10-22T11:32:17;512.90;1356.80
56123;DHT22;42426;46.104;19.656;2022-10-22T11:34:47;512.90;1331.20
56123;DHT22;42426;46.104;19.656;2022-10-22T11:37:14;512.90;1356.80
56123;DHT22;42426;46.104;19.656;2022-10-22T11:39:51;512.90;1331.20
56123;DHT22;42426;46.104;19.656;2022-10-22T11:42:21;512.90;1331.20
56123;DHT22;42426;46.104;19.656;2022-10-22T11:47:32;537.60;1331.20
56123;DHT22;42426;46.104;19.656;2022-10-22T11:50:21;537.70;1331.20
56123;DHT22;42426;46.104;19.656;2022-10-22T11:53:04;537.80;1305.60
56123;DHT22;42426;46.104;19.656;2022-10-22T11:55:49;537.90;1331.20
56123;DHT22;42426;46.104;19.656;2022-10-22T12:03:47;537.90;1305.60
56123;DHT22;42426;46.104;19.656;2022-10-22T12:08:55;537.90;1280.00
56123;DHT22;42426;46.104;19.656;2022-10-22T12:11:39;537.90;1280.00
56123;DHT22;42426;46.104;19.656;2022-10-22T12:24:22;537.80;1305.60
56123;DHT22;42426;46.104;19.656;2022-10-22T12:26:49;537.80;1305.60
56123;DHT22;42426;46.104;19.656;2022-10-22T12:29:18;537.70;1331.20
56123;DHT22;42426;46.104;19.656;2022-10-22T12:31:45;537.70;1331.20
56123;DHT22;42426;46.104;19.656;2022-10-22T12:34:22;537.70;1305.60
56123;DHT22;42426;46.104;19.656;2022-10-22T12:36:50;537.70;1280.00
56123;DHT22;42426;46.104;19.656;2022-10-22T12:39:23;537.70;1280.00
56123;DHT22;42426;46.104;19.656;2022-10-22T12:41:51;537.70;1280.00
56123;DHT22;42426;46.104;19.656;2022-10-22T12:44:18;537.70;1280.00
56123;DHT22;42426;46.104;19.656;2022-10-22T12:46:45;537.70;1280.00
56123;DHT22;42426;46.104;19.656;2022-10-22T12:49:20;537.70;1305.60
56123;DHT22;42426;46.104;19.656;2022-10-22T12:51:47;537.70;1305.60
56123;DHT22;42426;46.104;19.656;2022-10-22T12:54:23;537.70;1305.60
56123;DHT22;42426;46.104;19.656;2022-10-22T12:56:50;537.70;1331.20
56123;DHT22;42426;46.104;19.656;2022-10-22T12:59:23;537.70;1331.20
56123;DHT22;42426;46.104;19.656;2022-10-22T13:01:51;537.70;1305.60
56123;DHT22;42426;46.104;19.656;2022-10-22T13:04:35;537.70;1305.60
56123;DHT22;42426;46.104;19.656;2022-10-22T13:09:55;537.70;1280.00
56123;DHT22;42426;46.104;19.656;2022-10-22T13:12:35;537.60;1280.00
56123;DHT22;42426;46.104;19.656;2022-10-22T13:15:32;537.60;1254.40
56123;DHT22;42426;46.104;19.656;2022-10-22T13:18:18;537.60;1254.40
56123;DHT22;42426;46.104;19.656;2022-10-22T13:21:01;512.90;1254.40
56123;DHT22;42426;46.104;19.656;2022-10-22T13:23:30;512.90;1228.80
56123;DHT22;42426;46.104;19.656;2022-10-22T13:26:14;512.80;1228.80
56123;DHT22;42426;46.104;19.656;2022-10-22T13:28:41;512.80;1254.40
56123;DHT22;42426;46.104;19.656;2022-10-22T13:31:17;512.80;1228.80
56123;DHT22;42426;46.104;19.656;2022-10-22T13:33:45;512.80;1254.40
56123;DHT22;42426;46.104;19.656;2022-10-22T13:36:15;512.80;1254.40
56123;DHT22;42426;46.104;19.656;2022-10-22T13:38:42;512.70;1254.40
56123;DHT22;42426;46.104;19.656;2022-10-22T13:41:29;512.70;1254.40
56123;DHT22;42426;46.104;19.656;2022-10-22T13:43:58;512.70;1254.40
56123;DHT22;42426;46.104;19.656;2022-10-22T13:46:25;512.70;1254.40
56123;DHT22;42426;46.104;19.656;2022-10-22T13:48:52;512.70;1254.40
56123;DHT22;42426;46.104;19.656;2022-10-22T13:51:21;512.60;1254.40
56123;DHT22;42426;46.104;19.656;2022-10-22T13:53:50;512.60;1254.40
56123;DHT22;42426;46.104;19.656;2022-10-22T13:56:18;512.60;1254.40
56123;DHT22;42426;46.104;19.656;2022-10-22T13:58:45;512.50;1280.00
56123;DHT22;42426;46.104;19.656;2022-10-22T14:01:25;512.50;1254.40
56123;DHT22;42426;46.104;19.656;2022-10-22T14:03:54;512.50;1280.00
56123;DHT22;42426;46.104;19.656;2022-10-22T14:06:23;512.50;1280.00
56123;DHT22;42426;46.104;19.656;2022-10-22T14:08:55;512.50;1280.00
56123;DHT22;42426;46.104;19.656;2022-10-22T14:11:23;512.40;1280.00
56123;DHT22;42426;46.104;19.656;2022-10-22T14:13:49;512.40;1280.00
56123;DHT22;42426;46.104;19.656;2022-10-22T14:16:23;512.30;1280.00
56123;DHT22;42426;46.104;19.656;2022-10-22T14:18:50;512.30;1280.00
56123;DHT22;42426;46.104;19.656;2022-10-22T14:21:17;512.30;1280.00
56123;DHT22;42426;46.104;19.656;2022-10-22T14:23:44;512.30;1280.00
56123;DHT22;42426;46.104;19.656;2022-10-22T14:26:26;512.30;1305.60
56123;DHT22;42426;46.104;19.656;2022-10-22T14:28:54;512.20;1305.60
56123;DHT22;42426;46.104;19.656;2022-10-22T14:31:20;512.20;1305.60
56123;DHT22;42426;46.104;19.656;2022-10-22T14:33:46;512.20;1305.60
56123;DHT22;42426;46.104;19.656;2022-10-22T14:36:13;512.10;1305.60
56123;DHT22;42426;46.104;19.656;2022-10-22T14:38:41;512.10;1305.60
56123;DHT22;42426;46.104;19.656;2022-10-22T14:41:19;512.10;1331.20
56123;DHT22;42426;46.104;19.656;2022-10-22T14:43:46;512.00;1331.20
56123;DHT22;42426;46.104;19.656;2022-10-22T14:46:14;512.00;1331.20
56123;DHT22;42426;46.104;19.656;2022-10-22T14:48:41;512.00;1356.80
56123;DHT22;42426;46.104;19.656;2022-10-22T14:51:10;512.00;1356.80
56123;DHT22;42426;46.104;19.656;2022-10-22T14:53:36;487.30;1356.80
56123;DHT22;42426;46.104;19.656;2022-10-22T14:56:02;487.30;1356.80
56123;DHT22;42426;46.104;19.656;2022-10-22T14:58:28;487.20;1356.80
56123;DHT22;42426;46.104;19.656;2022-10-22T15:00:53;487.30;1356.80
56123;DHT22;42426;46.104;19.656;2022-10-22T15:03:19;487.20;1356.80
56123;DHT22;42426;46.104;19.656;2022-10-22T15:05:45;487.20;1382.40
56123;DHT22;42426;46.104;19.656;2022-10-22T15:08:13;487.20;1382.40
56123;DHT22;42426;46.104;19.656;2022-10-22T15:10:39;487.10;1382.40
56123;DHT22;42426;46.104;19.656;2022-10-22T15:13:05;487.10;1382.40
56123;DHT22;42426;46.104;19.656;2022-10-22T15:15:31;487.10;1382.40
56123;DHT22;42426;46.104;19.656;2022-10-22T15:17:56;487.00;1408.00
56123;DHT22;42426;46.104;19.656;2022-10-22T15:20:22;487.00;1408.00
56123;DHT22;42426;46.104;19.656;2022-10-22T15:22:48;487.00;1408.00
56123;DHT22;42426;46.104;19.656;2022-10-22T15:25:14;486.90;1408.00
56123;DHT22;42426;46.104;19.656;2022-10-22T15:27:39;486.90;1408.00
56123;DHT22;42426;46.104;19.656;2022-10-22T15:30:06;486.90;1433.60
56123;DHT22;42426;46.104;19.656;2022-10-22T15:32:32;486.90;1433.60
56123;DHT22;42426;46.104;19.656;2022-10-22T15:34:59;486.80;1433.60
56123;DHT22;42426;46.104;19.656;2022-10-22T15:37:26;486.80;1433.60
56123;DHT22;42426;46.104;19.656;2022-10-22T15:39:52;486.70;1433.60
56123;DHT22;42426;46.104;19.656;2022-10-22T15:42:18;486.80;1459.20
56123;DHT22;42426;46.104;19.656;2022-10-22T15:44:44;486.70;1612.80
56123;DHT22;42426;46.104;19.656;2022-10-22T15:47:10;486.70;1740.80
56123;DHT22;42426;46.104;19.656;2022-10-22T15:49:38;486.60;1894.40
56123;DHT22;42426;46.104;19.656;2022-10-22T15:52:05;486.50;1894.40
56123;DHT22;42426;46.104;19.656;2022-10-22T15:54:31;486.40;1945.60
56123;DHT22;42426;46.104;19.656;2022-10-22T15:56:58;486.50;1920.00
56123;DHT22;42426;46.104;19.656;2022-10-22T15:59:25;461.70;1971.20
56123;DHT22;42426;46.104;19.656;2022-10-22T16:01:51;461.70;1945.60
56123;DHT22;42426;46.104;19.656;2022-10-22T16:04:17;461.60;1971.20
56123;DHT22;42426;46.104;19.656;2022-10-22T16:06:45;461.60;1996.80
56123;DHT22;42426;46.104;19.656;2022-10-22T16:09:23;461.50;1996.80
56123;DHT22;42426;46.104;19.656;2022-10-22T16:11:50;461.50;2022.40
56123;DHT22;42426;46.104;19.656;2022-10-22T16:14:17;461.50;2022.40
56123;DHT22;42426;46.104;19.656;2022-10-22T16:16:50;461.40;2022.40
56123;DHT22;42426;46.104;19.656;2022-10-22T16:19:17;461.40;2048.00
56123;DHT22;42426;46.104;19.656;2022-10-22T16:21:43;461.30;2048.00
56123;DHT22;42426;46.104;19.656;2022-10-22T16:24:10;461.30;2048.00
56123;DHT22;42426;46.104;19.656;2022-10-22T16:26:36;461.30;2022.40
56123;DHT22;42426;46.104;19.656;2022-10-22T16:29:03;461.20;2048.00
56123;DHT22;42426;46.104;19.656;2022-10-22T16:31:30;461.20;2048.00